Time;durP1;ratioP1;P1;durP2;ratioP2;P2;SDS_P1;SDS_P2;PMS_P1;PMS_P2;Temp;Humidity;BMP_temperature;BMP_pressure;BME280_temperature;BME280_humidity;BME280_pressure;Samples;Min_cycle;Max_cycle;Signal;HPM_P1;HPM_P2
2023/07/17 00:00:22;;;;;;;3.60;2.25;;;18.50;99.90;;;;;;5011082;28;20470;-64
2023/07/17 00:02:48;;;;;;;3.08;2.28;;;18.50;99.90;;;;;;5011495;28;20034;-64
2023/07/17 00:05:13;;;;;;;4.38;2.25;;;18.50;99.90;;;;;;5011828;28;20038;-64
2023/07/17 00:07:40;;;;;;;3.08;2.30;;;18.40;99.90;;;;;;5011149;28;20539;-64
2023/07/17 00:10:10;;;;;;;3.53;2.22;;;18.40;99.90;;;;;;5005846;28;20081;-64
2023/07/17 00:12:37;;;;;;;4.80;2.13;;;18.50;99.90;;;;;;5009553;28;20049;-63
2023/07/17 00:15:06;;;;;;;4.65;1.90;;;18.40;99.90;;;;;;5019306;28;20042;-64
2023/07/17 00:17:33;;;;;;;3.90;2.10;;;18.40;99.90;;;;;;5011153;28;20472;-64
2023/07/17 00:20:00;;;;;;;3.05;1.85;;;18.40;99.90;;;;;;5009083;28;20151;-63
2023/07/17 00:22:26;;;;;;;4.88;2.17;;;18.40;99.90;;;;;;5009746;28;20095;-64
2023/07/17 00:24:52;;;;;;;3.20;2.13;;;18.30;99.90;;;;;;5027305;28;20041;-64
2023/07/17 00:27:19;;;;;;;4.18;2.10;;;18.30;99.90;;;;;;5024465;28;20045;-64
2023/07/17 00:29:44;;;;;;;2.65;2.28;;;18.30;99.90;;;;;;5011794;28;20049;-64
2023/07/17 00:32:14;;;;;;;5.57;2.15;;;18.30;99.90;;;;;;5019264;28;20416;-64
2023/07/17 00:34:40;;;;;;;4.05;2.03;;;18.30;99.90;;;;;;5024527;28;20387;-64
2023/07/17 00:37:06;;;;;;;3.88;2.15;;;18.30;99.90;;;;;;5011016;28;20045;-63
2023/07/17 00:39:33;;;;;;;3.97;1.95;;;18.30;99.90;;;;;;5010080;28;20472;-63
2023/07/17 00:41:59;;;;;;;4.35;2.53;;;18.30;99.90;;;;;;5013838;28;20034;-63
2023/07/17 00:44:24;;;;;;;6.18;2.65;;;18.30;99.90;;;;;;5015743;28;20091;-64
2023/07/17 00:46:52;;;;;;;5.40;2.03;;;18.30;99.90;;;;;;5007649;28;20113;-64
2023/07/17 00:49:19;;;;;;;3.92;1.92;;;18.30;99.90;;;;;;5011044;28;20045;-64
2023/07/17 00:51:44;;;;;;;4.22;2.50;;;18.30;99.90;;;;;;5008282;28;20046;-63
2023/07/17 00:54:11;;;;;;;7.22;2.60;;;18.30;99.90;;;;;;5008743;28;20041;-63
2023/07/17 00:56:37;;;;;;;4.20;2.40;;;18.20;99.90;;;;;;5001140;28;20054;-63
2023/07/17 00:59:04;;;;;;;4.07;2.08;;;18.20;99.90;;;;;;5006599;28;20496;-64
2023/07/17 01:01:31;;;;;;;4.28;2.40;;;18.30;99.90;;;;;;5009952;28;20077;-64
2023/07/17 01:04:00;;;;;;;4.55;2.15;;;18.30;99.90;;;;;;5018284;28;20069;-64
2023/07/17 01:06:30;;;;;;;5.65;2.17;;;18.10;99.90;;;;;;5007524;28;20042;-63
2023/07/17 01:08:55;;;;;;;5.20;3.30;;;18.20;99.90;;;;;;5010133;28;20038;-63
2023/07/17 01:11:21;;;;;;;4.40;2.33;;;18.10;99.90;;;;;;5005952;28;20096;-64
2023/07/17 01:13:49;;;;;;;6.05;2.92;;;18.10;99.90;;;;;;5004045;28;20038;-63
2023/07/17 01:16:15;;;;;;;5.75;2.63;;;18.10;99.90;;;;;;5004583;28;20662;-63
2023/07/17 01:18:41;;;;;;;7.63;2.50;;;18.10;99.90;;;;;;5001811;28;20034;-64
2023/07/17 01:21:08;;;;;;;5.22;2.70;;;18.00;99.90;;;;;;5003832;28;20045;-64
2023/07/17 01:23:35;;;;;;;5.72;2.58;;;17.90;99.90;;;;;;4999173;28;20112;-64
2023/07/17 01:26:09;;;;;;;8.10;2.38;;;17.80;99.90;;;;;;4994031;28;20038;-64
2023/07/17 01:28:34;;;;;;;6.15;2.00;;;17.80;99.90;;;;;;4995512;28;20042;-63
2023/07/17 01:31:00;;;;;;;6.13;1.98;;;17.80;99.90;;;;;;5012130;28;20040;-64
2023/07/17 01:33:26;;;;;;;6.72;1.98;;;17.70;99.90;;;;;;5016784;28;20088;-63
2023/07/17 01:35:51;;;;;;;3.10;1.70;;;17.80;99.90;;;;;;5014601;28;20072;-64
2023/07/17 01:38:17;;;;;;;4.03;2.00;;;17.70;99.90;;;;;;5013779;28;20076;-63
2023/07/17 01:40:42;;;;;;;3.58;1.73;;;17.70;99.90;;;;;;5007422;28;20428;-63
2023/07/17 01:43:08;;;;;;;4.53;2.10;;;17.60;99.90;;;;;;5010129;28;20038;-63
2023/07/17 01:45:34;;;;;;;6.13;2.17;;;17.60;99.90;;;;;;5008693;28;20353;-63
2023/07/17 01:47:59;;;;;;;3.22;1.70;;;17.60;99.90;;;;;;5014891;28;20048;-64
2023/07/17 01:50:25;;;;;;;4.65;1.77;;;17.60;99.90;;;;;;5014719;28;20462;-63
2023/07/17 01:52:50;;;;;;;7.35;2.15;;;17.50;99.90;;;;;;5007954;28;20034;-63
2023/07/17 01:55:16;;;;;;;3.90;1.60;;;17.60;99.90;;;;;;5013914;28;20052;-63
2023/07/17 01:57:41;;;;;;;6.75;2.50;;;17.50;99.90;;;;;;5014650;28;20125;-63
2023/07/17 02:00:07;;;;;;;3.63;1.70;;;17.50;99.90;;;;;;5014224;28;20037;-64
2023/07/17 02:02:33;;;;;;;5.85;2.10;;;17.50;99.90;;;;;;5010154;28;20042;-64
2023/07/17 02:04:59;;;;;;;5.00;1.73;;;17.50;99.90;;;;;;5003378;28;20033;-64
2023/07/17 02:07:24;;;;;;;6.95;1.98;;;17.50;99.90;;;;;;5008960;28;20033;-63
2023/07/17 02:09:50;;;;;;;5.85;2.33;;;17.50;99.90;;;;;;5014044;28;20097;-63
2023/07/17 02:12:16;;;;;;;8.90;2.45;;;17.40;99.90;;;;;;5011783;28;20045;-63
2023/07/17 02:14:42;;;;;;;8.18;2.72;;;17.40;99.90;;;;;;5012836;28;20099;-63
2023/07/17 02:17:07;;;;;;;5.95;1.70;;;17.40;99.90;;;;;;5009433;28;20128;-64
2023/07/17 02:19:33;;;;;;;4.63;2.08;;;17.40;99.90;;;;;;5009615;28;20038;-63
2023/07/17 02:21:58;;;;;;;6.47;2.00;;;17.40;99.90;;;;;;5005075;28;20106;-63
2023/07/17 02:24:24;;;;;;;6.05;2.00;;;17.50;99.90;;;;;;5021642;28;20044;-63
2023/07/17 02:26:50;;;;;;;6.43;1.80;;;17.40;99.90;;;;;;5013150;28;20038;-63
2023/07/17 02:29:15;;;;;;;6.63;1.80;;;17.40;99.90;;;;;;5013066;28;20042;-63
2023/07/17 02:31:41;;;;;;;5.03;2.05;;;17.40;99.90;;;;;;5013710;28;20038;-63
2023/07/17 02:34:07;;;;;;;6.75;1.88;;;17.40;99.90;;;;;;5021362;28;20038;-63
2023/07/17 02:36:32;;;;;;;4.57;1.90;;;17.30;99.90;;;;;;5014593;28;20048;-63
2023/07/17 02:38:58;;;;;;;5.13;2.10;;;17.30;99.90;;;;;;5008302;28;20539;-64
2023/07/17 02:41:24;;;;;;;6.53;2.10;;;17.30;99.90;;;;;;5013061;28;20041;-63
2023/07/17 02:43:51;;;;;;;6.80;2.20;;;17.30;99.90;;;;;;5020588;28;20044;-63
2023/07/17 02:46:16;;;;;;;6.22;2.53;;;17.30;99.90;;;;;;5019634;28;20385;-63
2023/07/17 02:48:42;;;;;;;8.43;2.53;;;17.30;99.90;;;;;;5009275;28;20068;-63
2023/07/17 02:51:08;;;;;;;5.22;2.70;;;17.30;99.90;;;;;;5012604;28;20050;-63
2023/07/17 02:53:33;;;;;;;8.55;2.20;;;17.30;99.90;;;;;;4999712;28;20137;-63
2023/07/17 02:55:59;;;;;;;7.00;2.35;;;17.20;99.90;;;;;;5003178;28;20038;-63
2023/07/17 02:58:24;;;;;;;8.70;2.38;;;17.20;99.90;;;;;;5011975;28;20050;-63
2023/07/17 03:00:50;;;;;;;6.47;2.17;;;17.20;99.90;;;;;;5008661;28;20392;-63
2023/07/17 03:03:15;;;;;;;9.30;2.58;;;17.20;99.90;;;;;;5012082;28;20102;-63
2023/07/17 03:05:41;;;;;;;7.90;2.22;;;17.10;99.90;;;;;;5015794;28;20445;-63
2023/07/17 03:08:07;;;;;;;4.68;2.30;;;17.20;99.90;;;;;;5012943;28;20038;-63
2023/07/17 03:10:32;;;;;;;8.55;3.08;;;17.10;99.90;;;;;;5002384;28;20052;-63
2023/07/17 03:12:58;;;;;;;7.07;2.50;;;17.10;99.90;;;;;;5000176;28;20034;-63
2023/07/17 03:15:24;;;;;;;5.97;2.25;;;17.10;99.90;;;;;;5004537;28;20070;-63
2023/07/17 03:17:49;;;;;;;6.25;2.33;;;17.10;99.90;;;;;;5007227;28;20041;-63
2023/07/17 03:20:17;;;;;;;6.05;2.10;;;17.10;99.90;;;;;;5002896;28;20041;-63
2023/07/17 03:22:43;;;;;;;7.72;2.55;;;17.00;99.90;;;;;;5007917;28;20042;-63
2023/07/17 03:25:08;;;;;;;5.43;2.53;;;17.00;99.90;;;;;;5007661;28;20404;-63
2023/07/17 03:27:34;;;;;;;7.90;2.60;;;17.00;99.90;;;;;;5011598;28;20121;-63
2023/07/17 03:30:00;;;;;;;9.30;2.60;;;16.90;99.90;;;;;;5011799;28;20033;-63
2023/07/17 03:32:26;;;;;;;7.60;2.50;;;16.90;99.90;;;;;;5004502;28;20061;-63
2023/07/17 03:34:51;;;;;;;6.45;2.95;;;16.90;99.90;;;;;;5009916;28;20069;-63
2023/07/17 03:37:17;;;;;;;5.15;2.30;;;16.90;99.90;;;;;;5012451;28;20034;-63
2023/07/17 03:39:42;;;;;;;7.65;2.97;;;16.80;99.90;;;;;;5008453;28;20037;-63
2023/07/17 03:42:11;;;;;;;7.65;3.08;;;16.80;99.90;;;;;;5011280;28;20045;-63
2023/07/17 03:44:40;;;;;;;5.90;2.53;;;16.80;99.90;;;;;;5015508;28;20091;-63
2023/07/17 03:47:06;;;;;;;7.80;2.70;;;16.80;99.90;;;;;;5005267;28;20069;-63
2023/07/17 03:49:32;;;;;;;4.93;2.67;;;16.80;99.90;;;;;;5005822;28;20033;-63
2023/07/17 03:52:00;;;;;;;5.82;2.78;;;16.80;99.90;;;;;;5011244;28;20447;-63
2023/07/17 03:54:28;;;;;;;5.28;2.65;;;16.80;99.90;;;;;;5003014;28;20077;-63
2023/07/17 03:56:53;;;;;;;6.38;2.60;;;16.80;99.90;;;;;;5010240;28;20052;-63
2023/07/17 03:59:24;;;;;;;4.75;2.95;;;16.70;99.90;;;;;;5011170;28;20476;-63
2023/07/17 04:01:50;;;;;;;6.10;2.70;;;16.70;99.90;;;;;;5006903;28;20034;-63
2023/07/17 04:04:15;;;;;;;8.75;3.05;;;16.60;99.90;;;;;;5010980;28;20516;-63
2023/07/17 04:06:41;;;;;;;7.78;3.30;;;16.60;99.90;;;;;;5011212;28;20038;-63
2023/07/17 04:09:07;;;;;;;6.10;3.00;;;16.60;99.90;;;;;;5011611;28;20107;-63
2023/07/17 04:11:33;;;;;;;5.78;3.20;;;16.50;99.90;;;;;;5010838;28;20068;-63
2023/07/17 04:13:58;;;;;;;6.28;3.53;;;16.50;99.90;;;;;;5010643;28;20064;-63
2023/07/17 04:16:27;;;;;;;7.68;3.25;;;16.50;99.90;;;;;;5016841;28;20393;-63
2023/07/17 04:18:53;;;;;;;7.32;2.92;;;16.50;99.90;;;;;;5031594;28;20041;-63
2023/07/17 04:21:19;;;;;;;8.02;3.28;;;16.50;99.90;;;;;;5010365;28;20079;-63
2023/07/17 04:23:48;;;;;;;10.65;3.42;;;16.50;99.90;;;;;;5007418;28;20445;-63
2023/07/17 04:26:14;;;;;;;7.75;3.35;;;16.50;99.90;;;;;;5007811;28;20057;-63
2023/07/17 04:28:40;;;;;;;7.93;3.53;;;16.40;99.90;;;;;;5008142;28;20045;-63
2023/07/17 04:31:05;;;;;;;7.45;3.60;;;16.40;99.90;;;;;;5007733;28;20176;-63
2023/07/17 04:33:32;;;;;;;8.32;3.60;;;16.40;99.90;;;;;;5004970;28;20381;-63
2023/07/17 04:35:58;;;;;;;8.05;3.50;;;16.40;99.90;;;;;;5007306;28;20053;-63
2023/07/17 04:38:24;;;;;;;7.03;3.15;;;16.40;99.90;;;;;;5010558;28;20331;-63
2023/07/17 04:40:50;;;;;;;8.10;3.47;;;16.40;99.90;;;;;;5015867;28;20046;-63
2023/07/17 04:43:15;;;;;;;10.10;3.38;;;16.40;99.90;;;;;;5022144;28;20135;-68
2023/07/17 04:45:42;;;;;;;6.90;3.60;;;16.40;99.90;;;;;;5013377;28;20388;-68
2023/07/17 04:48:08;;;;;;;6.22;3.33;;;16.30;99.90;;;;;;4994564;28;20039;-68
2023/07/17 04:50:33;;;;;;;7.93;2.92;;;16.40;99.90;;;;;;5011290;28;20072;-68
2023/07/17 04:52:59;;;;;;;7.65;3.50;;;16.40;99.90;;;;;;5012725;28;20041;-68
2023/07/17 04:55:24;;;;;;;9.15;3.25;;;16.40;99.90;;;;;;5026047;28;20436;-68
2023/07/17 04:57:50;;;;;;;9.48;3.20;;;16.40;99.90;;;;;;5026194;28;20041;-68
2023/07/17 05:00:16;;;;;;;5.85;2.80;;;16.40;99.90;;;;;;5031903;28;20068;-68
2023/07/17 05:02:42;;;;;;;5.57;3.47;;;16.50;99.90;;;;;;5018272;28;20041;-68
2023/07/17 05:05:08;;;;;;;7.20;3.20;;;16.50;99.90;;;;;;5014919;28;20042;-70
2023/07/17 05:07:33;;;;;;;7.15;3.58;;;16.50;99.90;;;;;;5030235;22;20037;-66
2023/07/17 05:09:59;;;;;;;7.55;3.40;;;16.60;99.90;;;;;;5014084;28;20057;-67
2023/07/17 05:12:25;;;;;;;6.18;3.55;;;16.70;99.90;;;;;;5015767;28;20038;-67
2023/07/17 05:14:51;;;;;;;9.75;3.70;;;16.70;99.90;;;;;;5030214;28;20052;-66
2023/07/17 05:17:16;;;;;;;7.30;3.30;;;16.80;99.90;;;;;;5034888;28;20119;-66
2023/07/17 05:19:42;;;;;;;6.93;3.25;;;16.80;99.90;;;;;;5035008;28;20045;-66
2023/07/17 05:22:07;;;;;;;7.97;3.65;;;16.90;99.90;;;;;;5014907;28;20038;-66
2023/07/17 05:24:33;;;;;;;7.63;3.40;;;17.00;99.90;;;;;;5000510;28;20428;-66
2023/07/17 05:26:59;;;;;;;8.90;3.47;;;17.00;99.90;;;;;;5012360;28;20167;-66
2023/07/17 05:29:24;;;;;;;9.90;3.50;;;17.10;99.90;;;;;;5013826;28;20136;-66
2023/07/17 05:31:50;;;;;;;6.65;3.25;;;17.10;99.90;;;;;;5013608;28;20518;-66
2023/07/17 05:34:15;;;;;;;7.35;3.20;;;17.20;99.90;;;;;;5014224;28;20117;-66
2023/07/17 05:36:41;;;;;;;8.90;3.38;;;17.20;99.90;;;;;;5009475;28;20041;-66
2023/07/17 05:39:06;;;;;;;9.52;3.28;;;17.20;99.90;;;;;;5014508;28;20049;-66
2023/07/17 05:41:33;;;;;;;6.80;3.15;;;17.40;99.90;;;;;;5013619;28;20034;-66
2023/07/17 05:43:58;;;;;;;11.68;3.72;;;17.30;99.90;;;;;;5012712;28;20145;-67
2023/07/17 05:46:24;;;;;;;9.52;3.50;;;17.40;99.90;;;;;;5012554;28;20121;-67
2023/07/17 05:48:50;;;;;;;8.50;3.45;;;17.40;99.90;;;;;;5009752;28;20045;-66
2023/07/17 05:51:15;;;;;;;8.77;3.70;;;17.40;99.90;;;;;;5010613;28;20034;-66
2023/07/17 05:53:50;;;;;;;8.88;2.97;;;17.50;99.90;;;;;;5007544;28;20116;-66
2023/07/17 05:56:35;;;;;;;11.13;3.53;;;17.50;99.90;;;;;;5006215;28;20138;-66
2023/07/17 05:59:00;;;;;;;9.93;3.90;;;17.50;99.90;;;;;;5011745;28;20121;-66
2023/07/17 06:01:26;;;;;;;9.52;3.42;;;17.50;99.90;;;;;;5008590;28;20050;-66
2023/07/17 06:03:52;;;;;;;7.70;3.55;;;17.60;99.90;;;;;;5010579;28;20034;-66
2023/07/17 06:06:18;;;;;;;11.57;3.72;;;17.60;99.90;;;;;;5018007;28;20079;-66
2023/07/17 06:08:44;;;;;;;9.38;3.97;;;17.70;99.90;;;;;;5012097;28;20141;-66
2023/07/17 06:11:09;;;;;;;12.30;4.07;;;17.70;99.90;;;;;;5010409;28;20045;-66
2023/07/17 06:13:35;;;;;;;10.38;3.97;;;17.80;99.90;;;;;;5010155;28;20042;-66
2023/07/17 06:16:01;;;;;;;10.55;3.90;;;17.80;99.90;;;;;;5012005;28;20038;-66
2023/07/17 06:18:26;;;;;;;7.85;3.80;;;17.80;99.90;;;;;;5013710;28;20049;-67
2023/07/17 06:20:52;;;;;;;8.02;3.55;;;17.80;99.90;;;;;;5023745;28;20037;-66
2023/07/17 06:23:18;;;;;;;11.15;4.13;;;17.90;99.90;;;;;;5012882;28;20034;-66
2023/07/17 06:25:45;;;;;;;17.05;4.70;;;18.00;99.90;;;;;;5010329;28;20029;-66
2023/07/17 06:28:11;;;;;;;11.45;4.32;;;18.00;99.90;;;;;;5004069;28;20038;-67
2023/07/17 06:30:36;;;;;;;12.98;4.35;;;18.10;99.90;;;;;;5011540;28;20042;-66
2023/07/17 06:33:02;;;;;;;12.10;4.28;;;18.10;99.90;;;;;;5009822;28;20036;-67
2023/07/17 06:35:28;;;;;;;13.93;4.60;;;18.20;99.90;;;;;;5000612;28;20117;-66
2023/07/17 06:37:54;;;;;;;12.10;4.78;;;18.30;99.90;;;;;;5009053;28;20077;-66
2023/07/17 06:40:19;;;;;;;13.02;5.38;;;18.30;99.90;;;;;;5008695;28;20034;-66
2023/07/17 06:42:45;;;;;;;14.18;4.57;;;18.40;99.90;;;;;;5008828;28;20034;-66
2023/07/17 06:45:11;;;;;;;12.30;4.78;;;18.40;99.90;;;;;;5013556;28;20404;-66
2023/07/17 06:47:37;;;;;;;10.88;4.20;;;18.60;99.90;;;;;;5011967;28;20046;-66
2023/07/17 06:50:02;;;;;;;10.48;4.25;;;18.60;99.90;;;;;;5013373;28;20037;-67
2023/07/17 06:52:28;;;;;;;15.20;4.97;;;18.70;99.90;;;;;;5009738;28;20046;-66
2023/07/17 06:54:54;;;;;;;13.65;4.85;;;18.70;99.90;;;;;;5009241;28;20046;-66
2023/07/17 06:57:20;;;;;;;11.73;4.82;;;18.70;99.90;;;;;;5011691;28;20034;-67
2023/07/17 06:59:46;;;;;;;14.48;5.22;;;18.70;99.90;;;;;;5011117;28;20038;-66
2023/07/17 07:02:12;;;;;;;12.93;4.93;;;18.80;99.90;;;;;;5010918;28;20140;-68
2023/07/17 07:04:38;;;;;;;13.40;4.43;;;18.90;99.90;;;;;;5010211;28;20133;-67
2023/07/17 07:07:04;;;;;;;14.00;4.45;;;18.90;99.90;;;;;;5010692;28;20125;-67
2023/07/17 07:09:30;;;;;;;11.48;4.57;;;18.90;99.90;;;;;;5001636;28;20045;-67
2023/07/17 07:11:55;;;;;;;11.68;4.80;;;19.00;99.90;;;;;;5011128;28;20049;-67
2023/07/17 07:14:21;;;;;;;12.25;4.72;;;19.00;99.90;;;;;;5008916;28;20038;-67
2023/07/17 07:16:46;;;;;;;13.32;4.90;;;19.10;99.90;;;;;;5016845;28;20558;-67
2023/07/17 07:19:12;;;;;;;12.48;4.90;;;19.10;99.90;;;;;;5012435;28;20034;-67
2023/07/17 07:21:37;;;;;;;9.73;4.63;;;19.10;99.90;;;;;;5012170;28;20062;-66
2023/07/17 07:24:03;;;;;;;12.50;4.93;;;19.10;99.90;;;;;;5009043;28;20095;-68
2023/07/17 07:26:31;;;;;;;12.73;4.85;;;19.20;99.90;;;;;;5012915;28;20034;-70
2023/07/17 07:28:57;;;;;;;13.52;4.57;;;19.20;99.90;;;;;;5008474;28;20061;-69
2023/07/17 07:31:22;;;;;;;13.80;5.40;;;19.30;99.90;;;;;;5012668;28;20034;-70
2023/07/17 07:33:48;;;;;;;12.50;5.07;;;19.50;99.90;;;;;;5009754;28;20038;-69
2023/07/17 07:36:14;;;;;;;11.50;5.20;;;19.70;99.90;;;;;;4999035;28;20046;-69
2023/07/17 07:38:39;;;;;;;13.27;4.97;;;19.70;99.90;;;;;;5007834;28;20064;-68
2023/07/17 07:41:05;;;;;;;12.00;4.63;;;19.80;99.90;;;;;;5011841;28;20103;-68
2023/07/17 07:43:30;;;;;;;10.10;4.65;;;19.90;99.90;;;;;;5011809;28;20070;-68
2023/07/17 07:45:56;;;;;;;16.25;4.82;;;19.90;99.90;;;;;;5011116;28;20030;-69
2023/07/17 07:48:22;;;;;;;14.80;4.50;;;19.90;99.90;;;;;;5013532;28;20061;-70
2023/07/17 07:50:47;;;;;;;11.85;4.40;;;19.80;99.90;;;;;;5012128;28;20052;-70
2023/07/17 07:53:13;;;;;;;12.05;4.40;;;19.80;99.90;;;;;;5012146;28;20403;-70
2023/07/17 07:55:39;;;;;;;13.55;4.75;;;19.80;99.90;;;;;;5009179;28;20146;-68
2023/07/17 07:58:04;;;;;;;9.15;4.55;;;19.90;99.90;;;;;;5003014;28;20408;-68
2023/07/17 08:00:30;;;;;;;12.38;4.22;;;20.00;99.90;;;;;;5012086;28;20034;-68
2023/07/17 08:02:56;;;;;;;12.20;4.40;;;19.90;99.90;;;;;;5011228;28;20455;-69
2023/07/17 08:05:22;;;;;;;10.00;4.38;;;20.00;99.90;;;;;;5010293;28;20658;-69
2023/07/17 08:07:48;;;;;;;10.75;4.03;;;20.30;99.90;;;;;;5010728;28;20431;-68
2023/07/17 08:10:14;;;;;;;11.32;4.10;;;20.30;99.90;;;;;;5004107;28;20491;-69
2023/07/17 08:12:39;;;;;;;13.20;4.88;;;20.60;99.90;;;;;;5011626;28;20109;-68
2023/07/17 08:15:07;;;;;;;11.07;4.22;;;20.60;99.90;;;;;;5010838;28;20029;-69
2023/07/17 08:17:34;;;;;;;9.95;3.65;;;20.70;99.90;;;;;;4989944;28;20464;-69
2023/07/17 08:19:59;;;;;;;11.32;4.30;;;20.70;99.90;;;;;;5001442;28;20042;-69
2023/07/17 08:22:25;;;;;;;8.77;3.50;;;20.90;99.90;;;;;;4991943;28;20045;-68
2023/07/17 08:24:51;;;;;;;8.40;3.17;;;20.80;99.90;;;;;;5011161;28;20041;-68
2023/07/17 08:27:16;;;;;;;9.52;3.63;;;20.80;99.90;;;;;;4997572;28;20582;-68
2023/07/17 08:29:42;;;;;;;9.57;3.60;;;20.70;99.90;;;;;;5004446;28;20038;-68
2023/07/17 08:32:10;;;;;;;7.28;3.33;;;20.50;99.90;;;;;;4992392;28;20042;-68
2023/07/17 08:34:36;;;;;;;8.68;3.33;;;20.40;99.90;;;;;;5024723;28;20121;-69
2023/07/17 08:37:02;;;;;;;9.05;3.50;;;20.40;99.90;;;;;;5000225;28;20117;-68
2023/07/17 08:39:27;;;;;;;11.48;4.00;;;20.30;99.90;;;;;;5000225;28;20038;-68
2023/07/17 08:41:53;;;;;;;10.05;3.92;;;20.20;99.90;;;;;;5010756;28;20548;-68
2023/07/17 08:44:19;;;;;;;10.30;4.32;;;20.00;99.90;;;;;;5003410;28;20065;-68
2023/07/17 08:46:47;;;;;;;10.00;3.65;;;19.80;99.90;;;;;;5011950;28;20109;-68
2023/07/17 08:49:16;;;;;;;7.97;3.95;;;19.70;99.90;;;;;;4992344;28;20050;-68
2023/07/17 08:51:42;;;;;;;9.68;4.03;;;19.70;99.90;;;;;;4990648;28;20038;-68
2023/07/17 08:54:09;;;;;;;11.43;4.82;;;19.70;99.90;;;;;;4999252;28;20042;-68
2023/07/17 08:56:35;;;;;;;9.30;4.05;;;19.80;99.90;;;;;;5010289;28;20053;-68
2023/07/17 08:59:02;;;;;;;8.20;4.15;;;19.80;99.90;;;;;;5001647;28;20093;-68
2023/07/17 09:01:28;;;;;;;7.72;3.80;;;19.80;99.90;;;;;;4991982;28;20096;-68
2023/07/17 09:03:53;;;;;;;9.75;3.88;;;19.90;99.90;;;;;;4992005;28;20039;-68
2023/07/17 09:06:24;;;;;;;11.10;3.92;;;20.10;99.90;;;;;;5011196;28;20030;-69
2023/07/17 09:08:51;;;;;;;9.32;4.07;;;20.10;99.90;;;;;;4994655;28;20038;-68
2023/07/17 09:11:19;;;;;;;10.63;3.88;;;20.00;99.90;;;;;;4992013;28;20104;-69
2023/07/17 09:13:46;;;;;;;8.25;3.75;;;20.00;99.90;;;;;;5003481;28;20065;-69
2023/07/17 09:16:15;;;;;;;10.13;3.45;;;19.90;99.90;;;;;;5010227;28;20408;-69
2023/07/17 09:18:41;;;;;;;13.13;4.20;;;19.90;99.90;;;;;;5016262;28;20050;-69
2023/07/17 09:21:06;;;;;;;8.43;3.53;;;19.90;99.90;;;;;;5014573;28;20034;-69
2023/07/17 09:23:47;;;;;;;11.52;3.92;;;20.10;99.90;;;;;;5019519;28;20030;-69
2023/07/17 09:26:17;;;;;;;;;;;20.30;99.90;;;;;;5011172;28;20049;-69
2023/07/17 09:28:50;;;;;;;10.65;3.70;;;20.20;99.90;;;;;;5011495;28;20369;-69
2023/07/17 09:31:25;;;;;;;9.98;3.53;;;20.10;99.90;;;;;;5011729;28;20088;-68
2023/07/17 09:33:56;;;;;;;15.25;3.88;;;19.90;99.90;;;;;;5009574;28;20046;-69
2023/07/17 09:36:22;;;;;;;9.52;4.10;;;19.80;99.90;;;;;;5004251;28;20411;-70
2023/07/17 09:38:56;;;;;;;8.57;3.45;;;19.60;99.90;;;;;;5011977;28;20092;-70
2023/07/17 09:41:28;;;;;;;9.85;3.63;;;19.40;99.90;;;;;;5011211;28;20037;-69
2023/07/17 09:44:03;;;;;;;9.82;4.18;;;19.40;99.90;;;;;;5010206;28;20034;-69
2023/07/17 09:46:33;;;;;;;9.00;3.55;;;19.70;99.90;;;;;;5011356;28;20450;-70
2023/07/17 09:48:59;;;;;;;10.38;3.97;;;19.90;99.90;;;;;;5012893;28;20463;-69
2023/07/17 09:51:25;;;;;;;9.20;3.67;;;19.90;99.90;;;;;;5013835;28;20073;-69
2023/07/17 09:53:52;;;;;;;6.75;3.35;;;19.90;99.90;;;;;;5008447;28;20488;-69
2023/07/17 09:56:20;;;;;;;10.50;3.58;;;19.90;99.90;;;;;;5008914;28;20100;-69
2023/07/17 09:58:49;;;;;;;15.70;3.88;;;20.10;99.90;;;;;;5014514;28;20042;-69
2023/07/17 10:01:19;;;;;;;7.93;3.38;;;20.30;99.90;;;;;;5014573;28;20511;-69
2023/07/17 10:03:47;;;;;;;8.18;3.67;;;20.40;99.90;;;;;;5013650;28;20483;-69
2023/07/17 10:06:15;;;;;;;11.95;4.20;;;20.60;99.90;;;;;;5013926;28;20557;-68
2023/07/17 10:08:44;;;;;;;9.13;3.78;;;20.70;99.90;;;;;;5010057;28;20045;-69
2023/07/17 10:11:09;;;;;;;9.80;3.70;;;21.00;99.90;;;;;;5002507;28;20042;-69
2023/07/17 10:13:35;;;;;;;9.68;4.00;;;21.30;99.90;;;;;;5003830;28;20049;-69
2023/07/17 10:16:01;;;;;;;5.93;2.75;;;21.70;99.90;;;;;;5004362;28;20070;-69
2023/07/17 10:18:30;;;;;;;10.50;4.15;;;22.00;99.90;;;;;;5014134;28;20053;-69
2023/07/17 10:20:56;;;;;;;10.27;3.88;;;22.10;99.90;;;;;;4996960;28;20057;-68
2023/07/17 10:23:26;;;;;;;10.70;3.47;;;22.10;99.90;;;;;;5001246;28;20037;-69
2023/07/17 10:26:05;;;;;;;7.50;3.60;;;21.90;99.90;;;;;;5021340;28;20070;-69
2023/07/17 10:28:33;;;;;;;7.95;3.15;;;21.80;99.90;;;;;;5005795;28;20049;-69
2023/07/17 10:31:15;;;;;;;6.10;3.00;;;21.60;99.90;;;;;;5014016;28;20964;-69
2023/07/17 10:33:47;;;;;;;6.57;3.60;;;21.30;99.90;;;;;;5013220;28;20037;-69
2023/07/17 10:36:13;;;;;;;16.10;3.50;;;21.10;99.90;;;;;;5005056;28;20042;-69
2023/07/17 10:38:38;;;;;;;8.35;3.00;;;21.00;99.90;;;;;;5012489;28;20042;-68
2023/07/17 10:41:13;;;;;;;5.65;2.88;;;20.90;99.90;;;;;;4993875;28;20064;-68
2023/07/17 10:43:52;;;;;;;9.55;3.08;;;21.00;99.90;;;;;;5003109;28;20103;-68
2023/07/17 10:46:18;;;;;;;8.80;2.90;;;21.30;99.90;;;;;;5005537;28;20044;-69
2023/07/17 10:48:44;;;;;;;7.10;2.72;;;21.60;99.90;;;;;;5011580;28;20042;-69
2023/07/17 10:51:09;;;;;;;8.50;3.05;;;21.80;99.90;;;;;;5015299;28;20037;-69
2023/07/17 10:53:35;;;;;;;7.70;2.47;;;21.70;99.90;;;;;;5016061;28;20034;-69
2023/07/17 10:56:01;;;;;;;7.70;2.47;;;21.70;99.90;;;;;;5012588;28;20038;-68
2023/07/17 10:58:27;;;;;;;6.15;2.55;;;21.70;99.90;;;;;;4999874;28;20544;-69
2023/07/17 11:00:53;;;;;;;5.60;2.42;;;21.90;99.90;;;;;;4993950;28;20062;-69
2023/07/17 11:03:26;;;;;;;4.78;2.30;;;22.10;99.90;;;;;;5001109;28;20041;-70
2023/07/17 11:05:55;;;;;;;5.13;2.05;;;22.30;99.90;;;;;;5027915;22;20562;-68
2023/07/17 11:08:24;;;;;;;4.53;2.17;;;22.40;99.70;;;;;;5015075;28;20401;-68
2023/07/17 11:10:49;;;;;;;4.20;2.20;;;22.50;98.50;;;;;;5004639;28;20121;-69
2023/07/17 11:13:15;;;;;;;7.50;2.58;;;22.60;98.90;;;;;;5012343;28;20121;-68
2023/07/17 11:15:43;;;;;;;7.78;2.58;;;22.60;97.90;;;;;;5016691;28;20037;-67
2023/07/17 11:18:09;;;;;;;5.18;2.50;;;22.70;96.90;;;;;;5013760;28;20443;-68
2023/07/17 11:20:35;;;;;;;6.88;2.55;;;22.90;96.90;;;;;;4998198;28;20039;-67
2023/07/17 11:23:01;;;;;;;7.10;2.33;;;22.90;97.10;;;;;;4998883;28;20076;-67
2023/07/17 11:25:32;;;;;;;6.50;2.65;;;23.00;97.00;;;;;;5013406;28;20060;-68
2023/07/17 11:28:00;;;;;;;5.40;2.13;;;23.10;95.50;;;;;;5014727;28;20069;-67
2023/07/17 11:30:29;;;;;;;6.60;2.40;;;23.10;95.10;;;;;;4998293;28;20097;-68
2023/07/17 11:32:57;;;;;;;5.53;1.85;;;23.00;95.30;;;;;;5004219;28;20127;-67
2023/07/17 11:35:36;;;;;;;4.60;1.80;;;22.90;95.40;;;;;;5007902;28;20080;-68
2023/07/17 11:38:05;;;;;;;4.72;1.63;;;22.80;94.80;;;;;;4992806;28;20093;-68
2023/07/17 11:40:30;;;;;;;4.45;2.00;;;22.90;95.60;;;;;;5006564;28;20038;-67
2023/07/17 11:42:57;;;;;;;4.47;2.25;;;23.00;95.90;;;;;;5012765;28;20052;-67
2023/07/17 11:45:27;;;;;;;6.20;1.92;;;23.00;95.30;;;;;;5016617;28;20141;-67
2023/07/17 11:47:56;;;;;;;6.65;2.13;;;22.90;95.00;;;;;;5012135;28;20116;-68
2023/07/17 11:50:28;;;;;;;5.38;2.40;;;22.70;94.90;;;;;;5010701;28;20516;-69
2023/07/17 11:53:23;;;;;;;3.17;1.58;;;22.50;94.60;;;;;;5009427;28;20065;-69
2023/07/17 11:55:50;;;;;;;4.13;2.08;;;22.30;94.50;;;;;;4996039;28;20050;-67
2023/07/17 11:58:20;;;;;;;8.02;2.08;;;22.30;94.10;;;;;;5005253;28;20045;-68
2023/07/17 12:00:49;;;;;;;3.77;1.70;;;22.30;94.00;;;;;;4993080;28;20034;-68
2023/07/17 12:03:15;;;;;;;2.63;1.20;;;22.30;93.20;;;;;;5002138;28;20038;-68
2023/07/17 12:05:41;;;;;;;3.92;1.85;;;22.40;92.60;;;;;;4995203;28;20085;-68
2023/07/17 12:08:07;;;;;;;3.67;1.38;;;22.50;92.50;;;;;;5008389;28;20034;-68
2023/07/17 12:10:34;;;;;;;2.60;1.30;;;22.50;92.40;;;;;;5005482;28;20052;-69
2023/07/17 12:13:00;;;;;;;4.88;2.00;;;22.50;92.60;;;;;;5006086;28;20034;-68
2023/07/17 12:15:27;;;;;;;2.83;1.40;;;22.50;93.00;;;;;;5009504;28;20041;-68
2023/07/17 12:17:53;;;;;;;4.95;1.55;;;22.40;92.70;;;;;;5010162;28;20463;-68
2023/07/17 12:20:20;;;;;;;5.93;1.50;;;22.40;92.10;;;;;;5011579;28;20530;-69
2023/07/17 12:22:49;;;;;;;3.45;1.65;;;22.20;92.10;;;;;;5011404;28;20046;-69
2023/07/17 12:25:15;;;;;;;3.35;1.48;;;22.10;92.60;;;;;;5000218;28;20038;-67
2023/07/17 12:27:44;;;;;;;5.63;1.45;;;21.90;92.20;;;;;;5010791;28;20037;-67
2023/07/17 12:30:10;;;;;;;3.25;2.03;;;21.60;93.40;;;;;;5007633;28;20042;-66
2023/07/17 12:32:39;;;;;;;8.73;2.65;;;21.40;95.60;;;;;;5000957;28;20040;-69
2023/07/17 12:35:06;;;;;;;7.63;3.22;;;21.00;98.00;;;;;;5012375;28;20037;-68
2023/07/17 12:37:33;;;;;;;5.13;1.98;;;20.50;99.90;;;;;;5005283;28;20035;-69
2023/07/17 12:39:58;;;;;;;5.10;2.30;;;20.00;99.90;;;;;;4992505;28;20054;-67
2023/07/17 12:42:25;;;;;;;6.38;2.33;;;19.60;99.90;;;;;;4998559;28;20052;-68